Crane Island Airstrip

METAR KBLI TAF KBLI
1 °C
°C
-
°C
34m
Idade
01:26:50
LT
00:26
UTC
0 ft

1.000

2.000

3.000

4.000

5.000

OVC 4.500
VFR
<?= Yii::t('app', 'Wind direction') ?> <?= Yii::t('app', 'of'); ?>
030°
17:06
Pôr-do-sol
100%
Humidade
Tesoura de Vento
Fechado/Neve
Alcance visual RWY
Condição RWY
Vert. visibilidade
Min. visibilidade
CAVOK
Tendência
Correcção
Relatório especial
30,20 inHg
QNH
METAR KBLI 312353Z 03004KT 10SM OVC045 01/01 A3020 RMK AO2 SLP237 60000 T00110006 10011 21006 58017
Nublado
0 kt
0 kt
16:00
VFR
6 kt
17:00
VFR
6 kt
18:00
VFR
6 kt
19:00
VFR
6 kt
20:00
VFR
3 kt
21:00
VFR
3 kt
22:00
VFR
3 kt
10 mi
Visibilidade
4.500 ft
Tecto
4 kt
Vento
metar-taf.com/CKR

Metar-Taf.com

Decodificador visual

Nós e terceiros acompanhamos seu comportamento na internet em nosso site com cookies. Se você continuar, nós assumimos que você concorda com nosso política de cookies.